createdAt,value
2023-06-27T00:00:37.622Z,17.51
2023-06-27T00:01:37.700Z,17.46
2023-06-27T00:02:37.797Z,17.52
2023-06-27T00:03:37.861Z,17.46
2023-06-27T00:04:37.957Z,17.43
2023-06-27T00:05:38.172Z,17.41
2023-06-27T00:06:38.070Z,17.38
2023-06-27T00:07:38.136Z,17.36
2023-06-27T00:08:38.217Z,17.33
2023-06-27T00:09:38.334Z,17.26
2023-06-27T00:10:38.405Z,17.28
2023-06-27T00:11:38.422Z,17.25
2023-06-27T00:12:38.504Z,17.19
2023-06-27T00:13:38.565Z,17.22
2023-06-27T00:14:38.773Z,17.22
2023-06-27T00:15:38.900Z,17.23
2023-06-27T00:16:38.793Z,17.22
2023-06-27T00:17:38.928Z,17.23
2023-06-27T00:18:38.956Z,17.19
2023-06-27T00:19:39.027Z,17.25
2023-06-27T00:20:39.130Z,17.22
2023-06-27T00:21:39.202Z,17.14
2023-06-27T00:22:39.311Z,17.12
2023-06-27T00:23:39.347Z,17.12
2023-06-27T00:24:39.444Z,17.11
2023-06-27T00:25:39.665Z,17.11
2023-06-27T00:26:39.629Z,17.14
2023-06-27T00:27:39.695Z,17.12
2023-06-27T00:28:39.821Z,17.08
2023-06-27T00:29:39.858Z,17.08
2023-06-27T00:30:39.968Z,17.11
2023-06-27T00:31:40.013Z,17.12
2023-06-27T00:32:40.070Z,17.16
2023-06-27T00:33:40.133Z,17.14
2023-06-27T00:34:40.205Z,17.11
2023-06-27T00:35:40.691Z,17.08
2023-06-27T00:36:40.394Z,17.04
2023-06-27T00:37:40.444Z,17.04
2023-06-27T00:38:40.521Z,17.03
2023-06-27T00:39:40.631Z,17.01
2023-06-27T00:40:40.699Z,16.93
2023-06-27T00:41:40.756Z,16.91
2023-06-27T00:42:40.848Z,16.88
2023-06-27T00:43:40.950Z,16.82
2023-06-27T00:44:40.984Z,16.78
2023-06-27T00:45:41.235Z,16.81
2023-06-27T00:46:41.133Z,16.76
2023-06-27T00:47:41.287Z,16.79
2023-06-27T00:48:41.292Z,16.71
2023-06-27T00:49:41.366Z,16.71
2023-06-27T00:50:41.425Z,16.66
2023-06-27T00:51:41.533Z,16.66
2023-06-27T00:52:41.631Z,16.66
2023-06-27T00:53:41.663Z,16.66
2023-06-27T00:54:41.743Z,16.70
2023-06-27T00:55:42.097Z,16.70
2023-06-27T00:56:41.902Z,16.67
2023-06-27T00:57:42.008Z,16.67
2023-06-27T00:58:42.083Z,16.64
2023-06-27T00:59:42.191Z,16.63
2023-06-27T01:00:42.225Z,16.63
2023-06-27T01:01:42.298Z,16.61
2023-06-27T01:02:42.471Z,16.61
2023-06-27T01:03:42.621Z,16.60
2023-06-27T01:04:42.525Z,16.63
2023-06-27T01:05:42.816Z,16.63
2023-06-27T01:06:42.695Z,16.57
2023-06-27T01:07:42.762Z,16.52
2023-06-27T01:08:42.897Z,16.53
2023-06-27T01:09:43.025Z,16.49
2023-06-27T01:10:42.996Z,16.50
2023-06-27T01:11:43.097Z,16.49
2023-06-27T01:12:43.149Z,16.46
2023-06-27T01:13:43.213Z,16.45
2023-06-27T01:14:43.289Z,16.42
2023-06-27T01:15:43.488Z,16.42
2023-06-27T01:16:43.444Z,16.45
2023-06-27T01:17:43.549Z,16.35
2023-06-27T01:18:43.592Z,16.38
2023-06-27T01:19:43.684Z,16.34
2023-06-27T01:20:43.817Z,16.33
2023-06-27T01:21:43.862Z,16.34
2023-06-27T01:22:45.231Z,16.38
2023-06-27T01:23:44.043Z,16.38
2023-06-27T01:24:44.118Z,16.33
2023-06-27T01:25:44.260Z,16.35
2023-06-27T01:26:44.328Z,16.35
2023-06-27T01:27:44.416Z,16.35
2023-06-27T01:28:44.467Z,16.34
2023-06-27T01:29:44.565Z,16.34
2023-06-27T01:30:44.665Z,16.33
2023-06-27T01:31:44.778Z,16.25
2023-06-27T01:32:44.873Z,16.27
2023-06-27T01:33:46.528Z,16.24
2023-06-27T01:34:44.995Z,16.17
2023-06-27T01:35:45.037Z,16.11
2023-06-27T01:36:45.150Z,16.11
2023-06-27T01:37:45.172Z,16.14
2023-06-27T01:38:45.257Z,16.14
2023-06-27T01:39:45.324Z,16.08
2023-06-27T01:40:45.396Z,16.15
2023-06-27T01:41:45.527Z,16.09
2023-06-27T01:42:45.566Z,16.12
2023-06-27T01:43:45.628Z,16.05
2023-06-27T01:44:45.710Z,16.05
2023-06-27T01:45:45.821Z,16.04
2023-06-27T01:46:45.885Z,16.04
2023-06-27T01:47:46.064Z,16.05
2023-06-27T01:48:46.013Z,16.04
2023-06-27T01:49:46.080Z,16.08
2023-06-27T01:50:46.180Z,16.02
2023-06-27T01:51:46.219Z,16.02
2023-06-27T01:52:46.380Z,16.02
2023-06-27T01:53:46.395Z,16.00
2023-06-27T01:54:46.480Z,16.01
2023-06-27T01:55:46.607Z,16.00
2023-06-27T01:56:46.700Z,16.00
2023-06-27T01:57:46.761Z,15.97
2023-06-27T01:58:46.860Z,15.96
2023-06-27T01:59:46.928Z,15.92
2023-06-27T02:00:47.138Z,15.90
2023-06-27T02:01:47.103Z,15.90
2023-06-27T02:02:47.247Z,15.87
2023-06-27T02:03:47.304Z,15.84
2023-06-27T02:04:47.358Z,15.84
2023-06-27T02:05:47.438Z,15.84
2023-06-27T02:06:47.561Z,15.84
2023-06-27T02:07:47.626Z,15.82
2023-06-27T02:08:47.753Z,15.82
2023-06-27T02:09:47.858Z,15.80
2023-06-27T02:10:47.876Z,15.76
2023-06-27T02:11:47.955Z,15.75
2023-06-27T02:12:48.060Z,15.72
2023-06-27T02:13:48.157Z,15.72
2023-06-27T02:14:48.267Z,15.69
2023-06-27T02:15:48.334Z,15.71
2023-06-27T02:16:48.414Z,15.74
2023-06-27T02:17:48.556Z,15.75
2023-06-27T02:18:48.618Z,15.74
2023-06-27T02:19:48.710Z,15.71
2023-06-27T02:20:48.791Z,15.69
2023-06-27T02:21:48.933Z,15.68
2023-06-27T02:22:48.954Z,15.69
2023-06-27T02:23:49.040Z,15.71
2023-06-27T02:24:49.124Z,15.65
2023-06-27T02:25:49.258Z,15.65
2023-06-27T02:26:49.288Z,15.65
2023-06-27T02:27:49.388Z,15.69
2023-06-27T02:28:49.470Z,15.67
2023-06-27T02:29:49.553Z,15.74
2023-06-27T02:30:49.730Z,15.75
2023-06-27T02:31:49.723Z,15.67
2023-06-27T02:32:49.829Z,15.64
2023-06-27T02:33:49.831Z,15.67
2023-06-27T02:34:49.910Z,15.65
2023-06-27T02:35:50.053Z,15.62
2023-06-27T02:36:50.083Z,15.65
2023-06-27T02:37:50.170Z,15.59
2023-06-27T02:38:50.255Z,15.62
2023-06-27T02:39:50.340Z,15.56
2023-06-27T02:40:50.444Z,15.57
2023-06-27T02:41:50.511Z,15.57
2023-06-27T02:42:50.562Z,15.59
2023-06-27T02:43:50.647Z,15.57
2023-06-27T02:44:50.816Z,15.54
2023-06-27T02:45:50.807Z,15.53
2023-06-27T02:46:50.990Z,15.50
2023-06-27T02:47:51.012Z,15.44
2023-06-27T02:48:51.033Z,15.46
2023-06-27T02:49:51.184Z,15.44
2023-06-27T02:50:51.188Z,15.44
2023-06-27T02:51:51.349Z,15.43
2023-06-27T02:52:51.356Z,15.44
2023-06-27T02:53:51.413Z,15.44
2023-06-27T02:54:51.534Z,15.44
2023-06-27T02:55:51.588Z,15.44
2023-06-27T02:56:51.696Z,15.43
2023-06-27T02:57:51.757Z,15.43
2023-06-27T02:58:51.828Z,15.44
2023-06-27T02:59:51.912Z,15.46
2023-06-27T03:00:51.985Z,15.41
2023-06-27T03:01:52.116Z,15.36
2023-06-27T03:02:52.296Z,15.36
2023-06-27T03:03:57.539Z,15.36
2023-06-27T03:04:53.357Z,15.36
2023-06-27T03:05:52.444Z,15.34
2023-06-27T03:06:52.558Z,15.36
2023-06-27T03:07:52.581Z,15.34
2023-06-27T03:08:52.713Z,15.41
2023-06-27T03:09:52.708Z,15.32
2023-06-27T03:10:52.789Z,15.38
2023-06-27T03:11:52.863Z,15.36
2023-06-27T03:12:52.935Z,15.34
2023-06-27T03:13:53.048Z,15.28
2023-06-27T03:14:53.087Z,15.32
2023-06-27T03:15:53.174Z,15.29
2023-06-27T03:16:53.250Z,15.34
2023-06-27T03:17:53.416Z,15.29
2023-06-27T03:18:53.443Z,15.32
2023-06-27T03:19:53.477Z,15.31
2023-06-27T03:20:53.610Z,15.32
2023-06-27T03:21:53.655Z,15.28
2023-06-27T03:22:53.740Z,15.28
2023-06-27T03:23:53.847Z,15.32
2023-06-27T03:24:53.958Z,15.31
2023-06-27T03:25:53.998Z,15.23
2023-06-27T03:26:54.099Z,15.25
2023-06-27T03:27:54.133Z,15.21
2023-06-27T03:28:54.209Z,15.25
2023-06-27T03:29:54.331Z,15.21
2023-06-27T03:30:54.413Z,15.27
2023-06-27T03:31:54.525Z,15.21
2023-06-27T03:32:54.618Z,15.20
2023-06-27T03:33:54.617Z,15.23
2023-06-27T03:34:54.689Z,15.23
2023-06-27T03:35:54.768Z,15.25
2023-06-27T03:36:54.906Z,15.20
2023-06-27T03:37:54.937Z,15.19
2023-06-27T03:38:55.007Z,15.19
2023-06-27T03:39:55.140Z,15.20
2023-06-27T03:40:55.184Z,15.19
2023-06-27T03:41:55.299Z,15.19
2023-06-27T03:42:55.340Z,15.21
2023-06-27T03:43:55.437Z,15.16
2023-06-27T03:44:55.526Z,15.21
2023-06-27T03:45:55.578Z,15.19
2023-06-27T03:46:55.698Z,15.23
2023-06-27T03:48:03.304Z,15.23
2023-06-27T03:48:55.834Z,15.19
2023-06-27T03:49:55.930Z,15.27
2023-06-27T03:50:56.011Z,15.25
2023-06-27T03:51:56.154Z,15.23
2023-06-27T03:52:56.207Z,15.19
2023-06-27T03:53:56.295Z,15.20
2023-06-27T03:54:56.386Z,15.23
2023-06-27T03:55:56.465Z,15.19
2023-06-27T03:56:56.600Z,15.27
2023-06-27T03:57:56.647Z,15.20
2023-06-27T03:58:56.731Z,15.23
2023-06-27T03:59:56.816Z,15.20
2023-06-27T04:00:56.889Z,15.27
2023-06-27T04:01:57.016Z,15.23
2023-06-27T04:02:57.139Z,15.19
2023-06-27T04:03:57.264Z,15.23
2023-06-27T04:04:57.386Z,15.21
2023-06-27T04:05:57.301Z,15.21
2023-06-27T04:06:57.411Z,15.20
2023-06-27T04:07:57.437Z,15.21
2023-06-27T04:08:57.555Z,15.25
2023-06-27T04:09:57.600Z,15.21
2023-06-27T04:10:57.700Z,15.25
2023-06-27T04:11:57.756Z,15.23
2023-06-27T04:12:57.829Z,15.28
2023-06-27T04:13:57.974Z,15.25
2023-06-27T04:14:58.004Z,15.27
2023-06-27T04:15:58.082Z,15.27
2023-06-27T04:16:58.210Z,15.28
2023-06-27T04:17:58.286Z,15.28
2023-06-27T04:18:58.390Z,15.28
2023-06-27T04:19:58.431Z,15.32
2023-06-27T04:20:58.507Z,15.31
2023-06-27T04:21:58.612Z,15.29
2023-06-27T04:22:58.688Z,15.36
2023-06-27T04:23:58.783Z,15.34
2023-06-27T04:24:58.870Z,15.43
2023-06-27T04:25:58.913Z,15.44
2023-06-27T04:26:58.997Z,15.46
2023-06-27T04:27:59.094Z,15.49
2023-06-27T04:28:59.165Z,15.41
2023-06-27T04:29:59.280Z,15.49
2023-06-27T04:30:59.409Z,15.49
2023-06-27T04:31:59.390Z,15.47
2023-06-27T04:32:59.474Z,15.56
2023-06-27T04:33:59.518Z,15.57
2023-06-27T04:34:59.631Z,15.56
2023-06-27T04:35:59.697Z,15.56
2023-06-27T04:36:59.764Z,15.60
2023-06-27T04:37:59.879Z,15.64
2023-06-27T04:38:59.948Z,15.67
2023-06-27T04:40:00.090Z,15.69
2023-06-27T04:41:00.190Z,15.74
2023-06-27T04:42:00.243Z,15.71
2023-06-27T04:43:00.301Z,15.75
2023-06-27T04:44:00.388Z,15.83
2023-06-27T04:45:00.478Z,15.84
2023-06-27T04:46:00.574Z,15.87
2023-06-27T04:47:00.686Z,15.87
2023-06-27T04:48:00.804Z,15.94
2023-06-27T04:49:00.817Z,15.87
2023-06-27T04:50:00.924Z,15.87
2023-06-27T04:51:03.574Z,15.84
2023-06-27T04:52:01.074Z,15.87
2023-06-27T04:53:01.177Z,15.94
2023-06-27T04:54:01.261Z,16.00
2023-06-27T04:55:01.333Z,16.01
2023-06-27T04:56:01.500Z,15.94
2023-06-27T04:58:01.581Z,16.07
2023-06-27T04:59:01.675Z,16.15
2023-06-27T05:00:01.793Z,16.12
2023-06-27T05:01:01.944Z,16.07
2023-06-27T05:02:01.940Z,15.97
2023-06-27T05:03:02.125Z,16.07
2023-06-27T05:04:02.127Z,16.14
2023-06-27T05:05:02.267Z,16.24
2023-06-27T05:06:02.292Z,16.21
2023-06-27T05:07:02.427Z,16.21
2023-06-27T05:08:02.489Z,16.31
2023-06-27T05:09:02.599Z,16.33
2023-06-27T05:10:02.606Z,16.57
2023-06-27T05:11:02.708Z,16.61
2023-06-27T05:12:02.784Z,16.43
2023-06-27T05:13:02.914Z,16.45
2023-06-27T05:14:02.992Z,16.64
2023-06-27T05:15:03.017Z,16.60
2023-06-27T05:16:03.112Z,16.53
2023-06-27T05:17:03.191Z,16.63
2023-06-27T05:18:03.314Z,16.66
2023-06-27T05:19:03.414Z,16.61
2023-06-27T05:20:03.423Z,16.52
2023-06-27T05:21:03.503Z,16.50
2023-06-27T05:22:03.585Z,16.57
2023-06-27T05:23:03.669Z,16.50
2023-06-27T05:24:03.796Z,16.56
2023-06-27T05:25:03.851Z,16.71
2023-06-27T05:26:03.952Z,16.93
2023-06-27T05:27:04.031Z,17.11
2023-06-27T05:28:04.113Z,17.16
2023-06-27T05:29:04.239Z,17.22
2023-06-27T05:30:04.307Z,17.18
2023-06-27T05:31:04.492Z,17.26
2023-06-27T05:32:04.550Z,17.22
2023-06-27T05:33:04.697Z,17.11
2023-06-27T05:34:04.657Z,17.12
2023-06-27T05:35:04.692Z,16.93
2023-06-27T05:36:04.765Z,16.73
2023-06-27T05:37:04.873Z,16.93
2023-06-27T05:38:04.948Z,16.97
2023-06-27T05:39:05.086Z,16.81
2023-06-27T05:40:05.161Z,16.86
2023-06-27T05:41:05.213Z,16.97
2023-06-27T05:42:05.355Z,16.93
2023-06-27T05:43:05.389Z,16.97
2023-06-27T05:44:05.481Z,17.01
2023-06-27T05:45:05.571Z,17.03
2023-06-27T05:46:05.667Z,17.14
2023-06-27T05:47:05.803Z,17.15
2023-06-27T05:48:05.932Z,17.06
2023-06-27T05:49:05.938Z,17.06
2023-06-27T05:50:06.048Z,17.04
2023-06-27T05:51:06.080Z,17.15
2023-06-27T05:52:06.200Z,17.16
2023-06-27T05:53:06.262Z,17.25
2023-06-27T05:54:06.343Z,17.25
2023-06-27T05:55:06.448Z,17.06
2023-06-27T05:56:06.517Z,17.03
2023-06-27T05:57:06.642Z,16.93
2023-06-27T05:58:06.689Z,16.71
2023-06-27T05:59:06.778Z,16.89
2023-06-27T06:00:06.908Z,16.97
2023-06-27T06:01:06.962Z,17.07
2023-06-27T06:02:07.139Z,17.14
2023-06-27T06:03:07.218Z,17.26
2023-06-27T06:04:07.314Z,17.30
2023-06-27T06:05:07.344Z,17.34
2023-06-27T06:06:07.414Z,17.37
2023-06-27T06:07:07.552Z,17.31
2023-06-27T06:08:07.612Z,17.30
2023-06-27T06:09:07.673Z,17.40
2023-06-27T06:10:07.757Z,17.34
2023-06-27T06:11:07.839Z,17.31
2023-06-27T06:12:07.931Z,17.38
2023-06-27T06:13:08.055Z,17.49
2023-06-27T06:14:08.094Z,17.26
2023-06-27T06:15:08.426Z,17.30
2023-06-27T06:16:08.235Z,17.15
2023-06-27T06:17:08.309Z,17.08
2023-06-27T06:18:08.514Z,17.08
2023-06-27T06:19:08.498Z,17.26
2023-06-27T06:20:08.638Z,17.38
2023-06-27T06:21:08.697Z,17.44
2023-06-27T06:22:08.783Z,17.33
2023-06-27T06:23:08.897Z,17.30
2023-06-27T06:24:08.988Z,17.33
2023-06-27T06:25:09.011Z,17.40
2023-06-27T06:26:09.137Z,17.33
2023-06-27T06:27:09.131Z,17.30
2023-06-27T06:28:09.247Z,17.51
2023-06-27T06:29:09.309Z,17.55
2023-06-27T06:30:09.404Z,17.43
2023-06-27T06:31:09.544Z,17.54
2023-06-27T06:32:09.607Z,17.75
2023-06-27T06:33:09.655Z,17.70
2023-06-27T06:34:09.726Z,17.70
2023-06-27T06:35:09.819Z,17.74
2023-06-27T06:36:09.963Z,17.54
2023-06-27T06:37:10.048Z,17.41
2023-06-27T06:38:10.319Z,17.41
2023-06-27T06:39:10.094Z,17.31
2023-06-27T06:40:10.172Z,17.37
2023-06-27T06:41:10.295Z,17.56
2023-06-27T06:42:10.392Z,17.71
2023-06-27T06:43:10.440Z,17.55
2023-06-27T06:44:10.524Z,17.44
2023-06-27T06:45:10.629Z,17.49
2023-06-27T06:46:10.740Z,17.64
2023-06-27T06:47:10.849Z,17.89
2023-06-27T06:48:10.924Z,17.74
2023-06-27T06:49:10.999Z,17.56
2023-06-27T06:50:11.073Z,17.63
2023-06-27T06:51:11.160Z,17.86
2023-06-27T06:52:11.286Z,18.05
2023-06-27T06:53:11.317Z,18.17
2023-06-27T06:54:11.385Z,18.11
2023-06-27T06:55:11.476Z,17.77
2023-06-27T06:56:11.557Z,17.64
2023-06-27T06:57:11.747Z,17.46
2023-06-27T06:58:12.133Z,17.43
2023-06-27T06:59:11.845Z,17.31
2023-06-27T07:00:11.928Z,17.25
2023-06-27T07:01:12.054Z,17.25
2023-06-27T07:02:12.160Z,17.25
2023-06-27T07:03:12.210Z,17.18
2023-06-27T07:04:12.326Z,17.23
2023-06-27T07:05:12.377Z,17.46
2023-06-27T07:06:12.480Z,17.55
2023-06-27T07:07:12.624Z,17.71
2023-06-27T07:08:12.653Z,17.79
2023-06-27T07:09:12.742Z,17.96
2023-06-27T07:10:12.840Z,18.15
2023-06-27T07:11:12.924Z,18.42
2023-06-27T07:12:13.038Z,18.39
2023-06-27T07:13:13.076Z,18.23
2023-06-27T07:14:13.164Z,18.12
2023-06-27T07:15:13.280Z,17.95
2023-06-27T07:16:13.335Z,17.79
2023-06-27T07:17:13.437Z,17.63
2023-06-27T07:18:13.494Z,17.51
2023-06-27T07:19:13.581Z,17.38
2023-06-27T07:20:13.726Z,17.54
2023-06-27T07:21:13.754Z,17.70
2023-06-27T07:22:13.832Z,17.84
2023-06-27T07:23:13.915Z,17.99
2023-06-27T07:24:14.024Z,18.10
2023-06-27T07:25:14.152Z,18.21
2023-06-27T07:26:14.218Z,18.32
2023-06-27T07:27:14.273Z,18.33
2023-06-27T07:28:14.350Z,18.44
2023-06-27T07:29:14.446Z,18.66
2023-06-27T07:30:14.530Z,18.69
2023-06-27T07:31:14.706Z,18.75
2023-06-27T07:32:14.682Z,18.82
2023-06-27T07:33:16.695Z,18.88
2023-06-27T07:34:15.536Z,18.84
2023-06-27T07:35:14.948Z,18.80
2023-06-27T07:36:15.062Z,18.85
2023-06-27T07:37:15.077Z,18.99
2023-06-27T07:38:15.150Z,18.88
2023-06-27T07:39:15.228Z,18.73
2023-06-27T07:40:15.292Z,18.60
2023-06-27T07:41:15.407Z,18.51
2023-06-27T07:42:15.502Z,18.44
2023-06-27T07:43:15.561Z,18.29
2023-06-27T07:44:15.622Z,18.20
2023-06-27T07:45:15.701Z,18.11
2023-06-27T07:46:15.952Z,18.05
2023-06-27T07:47:15.900Z,18.10
2023-06-27T07:48:15.921Z,18.08
2023-06-27T07:49:16.043Z,18.07
2023-06-27T07:50:16.091Z,18.08
2023-06-27T07:51:16.144Z,18.11
2023-06-27T07:52:16.296Z,18.20
2023-06-27T07:53:16.344Z,18.30
2023-06-27T07:54:16.388Z,18.25
2023-06-27T07:55:16.476Z,18.25
2023-06-27T07:56:16.573Z,18.23
2023-06-27T07:57:16.660Z,18.23
2023-06-27T07:58:16.769Z,18.36
2023-06-27T07:59:16.811Z,18.33
2023-06-27T08:00:16.933Z,18.18
2023-06-27T08:01:17.020Z,18.00
2023-06-27T08:02:17.274Z,17.81
2023-06-27T08:03:17.287Z,17.71
2023-06-27T08:04:17.223Z,17.46
2023-06-27T08:05:17.316Z,17.40
2023-06-27T08:06:17.432Z,17.28
2023-06-27T08:07:17.474Z,17.25
2023-06-27T08:08:17.582Z,17.06
2023-06-27T08:09:17.608Z,16.93
2023-06-27T08:10:17.693Z,16.85
2023-06-27T08:11:17.981Z,17.00
2023-06-27T08:12:17.874Z,17.11
2023-06-27T08:13:17.984Z,17.28
2023-06-27T08:14:18.061Z,17.51
2023-06-27T08:15:18.130Z,17.70
2023-06-27T08:16:18.218Z,17.86
2023-06-27T08:17:18.286Z,17.90
2023-06-27T08:18:18.496Z,18.05
2023-06-27T08:19:18.480Z,18.15
2023-06-27T08:20:18.549Z,18.27
2023-06-27T08:21:18.661Z,18.42
2023-06-27T08:22:18.732Z,18.57
2023-06-27T08:23:18.837Z,18.52
2023-06-27T08:24:18.889Z,18.62
2023-06-27T08:25:18.965Z,18.72
2023-06-27T08:26:19.108Z,18.73
2023-06-27T08:27:19.148Z,18.62
2023-06-27T08:28:19.227Z,18.45
2023-06-27T08:29:19.333Z,18.35
2023-06-27T08:30:19.379Z,18.26
2023-06-27T08:31:19.602Z,18.15
2023-06-27T08:32:19.521Z,18.10
2023-06-27T08:33:19.609Z,18.07
2023-06-27T08:34:19.715Z,18.03
2023-06-27T08:35:19.767Z,18.29
2023-06-27T08:36:19.817Z,18.50
2023-06-27T08:37:19.911Z,18.66
2023-06-27T08:38:19.987Z,18.78
2023-06-27T08:39:20.098Z,18.94
2023-06-27T08:40:20.175Z,19.19
2023-06-27T08:41:20.200Z,19.08
2023-06-27T08:42:20.291Z,18.95
2023-06-27T08:43:20.368Z,18.85
2023-06-27T08:44:20.460Z,18.72
2023-06-27T08:45:20.588Z,18.72
2023-06-27T08:46:20.651Z,18.78
2023-06-27T08:47:20.730Z,18.69
2023-06-27T08:48:20.818Z,18.62
2023-06-27T08:49:20.857Z,18.69
2023-06-27T08:50:20.945Z,18.70
2023-06-27T08:51:21.042Z,18.55
2023-06-27T08:52:21.091Z,18.47
2023-06-27T08:53:21.160Z,18.37
2023-06-27T08:54:21.280Z,18.32
2023-06-27T08:55:21.328Z,18.23
2023-06-27T08:56:21.440Z,18.15
2023-06-27T08:57:21.487Z,18.15
2023-06-27T08:58:21.564Z,18.15
2023-06-27T08:59:21.711Z,18.10
2023-06-27T09:00:21.744Z,18.11
2023-06-27T09:01:21.923Z,18.14
2023-06-27T09:02:22.027Z,18.14
2023-06-27T09:03:22.072Z,18.23
2023-06-27T09:04:22.115Z,18.23
2023-06-27T09:05:22.204Z,18.21
2023-06-27T09:06:22.276Z,18.25
2023-06-27T09:07:22.443Z,18.23
2023-06-27T09:08:22.449Z,18.23
2023-06-27T09:09:22.522Z,18.14
2023-06-27T09:10:22.584Z,17.95
2023-06-27T09:11:22.673Z,17.75
2023-06-27T09:12:22.797Z,17.63
2023-06-27T09:13:22.830Z,17.64
2023-06-27T09:14:22.909Z,17.62
2023-06-27T09:15:22.973Z,17.66
2023-06-27T09:16:23.128Z,17.79
2023-06-27T09:17:23.191Z,18.05
2023-06-27T09:18:23.300Z,18.37
2023-06-27T09:19:23.306Z,18.73
2023-06-27T09:20:23.375Z,18.81
2023-06-27T09:21:23.834Z,18.92
2023-06-27T09:22:23.538Z,19.19
2023-06-27T09:23:23.664Z,19.47
2023-06-27T09:24:23.703Z,19.76
2023-06-27T09:25:23.792Z,20.01
2023-06-27T09:26:23.872Z,19.99
2023-06-27T09:27:23.957Z,19.99
2023-06-27T09:28:24.054Z,19.96
2023-06-27T09:29:24.154Z,19.78
2023-06-27T09:30:24.188Z,19.63
2023-06-27T09:31:24.287Z,19.26
2023-06-27T09:32:24.422Z,18.76
2023-06-27T09:33:27.334Z,18.08
2023-06-27T09:34:24.575Z,17.46
2023-06-27T09:38:44.900Z,16.71
2023-06-27T09:39:24.946Z,15.87
2023-06-27T09:40:27.718Z,15.76
2023-06-27T09:41:25.095Z,15.75
2023-06-27T09:42:25.134Z,15.72
2023-06-27T09:43:25.204Z,15.68
2023-06-27T09:44:25.275Z,15.72
2023-06-27T09:45:25.344Z,15.76
2023-06-27T09:46:26.752Z,15.72
2023-06-27T09:47:25.578Z,15.75
2023-06-27T09:48:35.093Z,15.80
2023-06-27T09:49:25.682Z,15.80
2023-06-27T09:50:25.736Z,15.83
2023-06-27T09:51:25.809Z,15.97
2023-06-27T09:52:25.918Z,16.08
2023-06-27T09:53:25.996Z,16.15
2023-06-27T09:54:26.119Z,16.28
2023-06-27T09:55:26.132Z,16.35
2023-06-27T09:56:26.215Z,16.60
2023-06-27T09:57:26.318Z,16.78
2023-06-27T09:58:26.427Z,16.93
2023-06-27T09:59:26.526Z,17.07
2023-06-27T10:00:26.584Z,17.21
2023-06-27T10:01:26.660Z,17.36
2023-06-27T10:02:26.778Z,17.54
2023-06-27T10:03:26.909Z,17.74
2023-06-27T10:05:30.104Z,18.14
2023-06-27T10:06:28.190Z,18.25
2023-06-27T10:07:27.160Z,18.30
2023-06-27T10:08:27.221Z,18.47
2023-06-27T10:09:27.375Z,18.55
2023-06-27T10:10:27.409Z,18.54
2023-06-27T10:11:27.491Z,18.69
2023-06-27T10:12:27.574Z,18.80
2023-06-27T10:13:27.649Z,18.87
2023-06-27T10:14:27.762Z,18.98
2023-06-27T10:15:27.799Z,19.06
2023-06-27T10:16:27.877Z,19.07
2023-06-27T10:17:27.966Z,19.21
2023-06-27T10:18:28.024Z,19.33
2023-06-27T10:19:28.200Z,19.40
2023-06-27T10:20:28.209Z,19.51
2023-06-27T10:21:28.311Z,19.63
2023-06-27T10:22:28.401Z,19.77
2023-06-27T10:23:28.435Z,19.86
2023-06-27T10:24:28.576Z,19.88
2023-06-27T10:25:28.592Z,19.92
2023-06-27T10:26:28.665Z,19.94
2023-06-27T10:27:28.761Z,20.01
2023-06-27T10:28:28.832Z,20.13
2023-06-27T10:29:28.941Z,20.16
2023-06-27T10:30:29.014Z,20.18
2023-06-27T10:31:29.178Z,19.92
2023-06-27T10:32:29.217Z,19.69
2023-06-27T10:33:29.263Z,19.55
2023-06-27T10:34:29.301Z,19.43
2023-06-27T10:35:29.473Z,19.22
2023-06-27T10:36:29.497Z,19.11
2023-06-27T10:37:29.559Z,18.95
2023-06-27T10:38:29.638Z,18.87
2023-06-27T10:39:29.710Z,18.70
2023-06-27T10:40:29.867Z,18.55
2023-06-27T10:41:29.862Z,18.44
2023-06-27T10:42:30.048Z,18.29
2023-06-27T10:43:30.044Z,18.15
2023-06-27T10:44:30.144Z,18.11
2023-06-27T10:45:30.245Z,18.00
2023-06-27T10:46:30.300Z,17.92
2023-06-27T10:47:30.474Z,17.92
2023-06-27T10:48:30.449Z,17.79
2023-06-27T10:49:30.520Z,17.79
2023-06-27T10:50:30.589Z,17.72
2023-06-27T10:51:30.680Z,17.71
2023-06-27T10:52:30.808Z,17.63
2023-06-27T10:53:30.897Z,17.63
2023-06-27T10:54:30.929Z,17.63
2023-06-27T10:55:31.037Z,17.55
2023-06-27T10:56:31.168Z,17.48
2023-06-27T10:57:31.190Z,17.44
2023-06-27T10:58:31.248Z,17.30
2023-06-27T10:59:31.336Z,17.18
2023-06-27T11:00:31.426Z,16.85
2023-06-27T11:01:31.523Z,16.52
2023-06-27T11:02:31.810Z,16.25
2023-06-27T11:03:31.792Z,16.01
2023-06-27T11:04:31.878Z,15.86
2023-06-27T11:05:31.901Z,15.78
2023-06-27T11:06:32.016Z,15.69
2023-06-27T11:07:32.059Z,15.57
2023-06-27T11:08:32.089Z,15.59
2023-06-27T11:09:32.270Z,15.57
2023-06-27T11:10:32.168Z,15.56
2023-06-27T11:11:32.312Z,15.62
2023-06-27T11:12:32.331Z,15.53
2023-06-27T11:13:32.450Z,15.50
2023-06-27T11:14:32.469Z,15.54
2023-06-27T11:15:32.574Z,15.57
2023-06-27T11:16:32.701Z,15.57
2023-06-27T11:17:32.759Z,15.69
2023-06-27T11:18:32.883Z,15.76
2023-06-27T11:19:32.932Z,15.87
2023-06-27T11:20:33.018Z,16.11
2023-06-27T11:21:33.126Z,16.25
2023-06-27T11:22:33.198Z,16.35
2023-06-27T11:23:33.249Z,16.45
2023-06-27T11:24:33.312Z,16.64
2023-06-27T11:25:33.472Z,16.76
2023-06-27T11:26:36.291Z,16.94
2023-06-27T11:27:33.556Z,17.04
2023-06-27T11:28:33.649Z,17.19
2023-06-27T11:29:33.721Z,17.30
2023-06-27T11:30:33.908Z,17.33
2023-06-27T11:31:33.967Z,17.34
2023-06-27T11:32:35.574Z,17.56
2023-06-27T11:33:35.782Z,17.70
2023-06-27T11:34:34.116Z,17.86
2023-06-27T11:35:34.235Z,17.97
2023-06-27T11:36:34.271Z,18.05
2023-06-27T11:37:34.349Z,18.25
2023-06-27T11:38:34.448Z,18.42
2023-06-27T11:39:34.526Z,18.47
2023-06-27T11:40:34.602Z,18.60
2023-06-27T11:41:34.703Z,18.50
2023-06-27T11:42:34.756Z,18.52
2023-06-27T11:43:34.817Z,18.55
2023-06-27T11:44:34.899Z,18.67
2023-06-27T11:45:34.988Z,18.76
2023-06-27T11:46:35.091Z,18.81
2023-06-27T11:47:35.163Z,18.94
2023-06-27T11:48:35.230Z,18.95
2023-06-27T11:49:35.321Z,19.16
2023-06-27T11:50:35.394Z,19.25
2023-06-27T11:51:35.512Z,19.46
2023-06-27T11:52:35.568Z,19.56
2023-06-27T11:53:35.626Z,19.76
2023-06-27T11:54:35.682Z,19.92
2023-06-27T11:55:35.803Z,19.98
2023-06-27T11:56:35.882Z,19.94
2023-06-27T11:57:35.913Z,19.91
2023-06-27T11:58:36.010Z,19.91
2023-06-27T11:59:36.077Z,19.98
2023-06-27T12:00:36.147Z,20.02
2023-06-27T12:01:36.339Z,20.06
2023-06-27T12:02:36.351Z,20.08
2023-06-27T12:03:36.410Z,20.05
2023-06-27T12:04:36.476Z,20.10
2023-06-27T12:05:36.550Z,20.18
2023-06-27T12:06:36.652Z,20.24
2023-06-27T12:07:36.745Z,20.38
2023-06-27T12:08:36.757Z,20.42
2023-06-27T12:09:36.866Z,20.55
2023-06-27T12:10:36.898Z,20.66
2023-06-27T12:11:37.010Z,20.87
2023-06-27T12:12:37.047Z,21.04
2023-06-27T12:13:37.124Z,21.19
2023-06-27T12:14:37.187Z,21.14
2023-06-27T12:15:37.251Z,21.22
2023-06-27T12:16:37.387Z,21.28
2023-06-27T12:17:37.422Z,21.43
2023-06-27T12:18:37.486Z,21.61
2023-06-27T12:19:37.591Z,21.58
2023-06-27T12:20:37.702Z,21.22
2023-06-27T12:21:37.758Z,20.84
2023-06-27T12:22:37.821Z,20.59
2023-06-27T12:23:37.888Z,20.38
2023-06-27T12:24:37.985Z,20.14
2023-06-27T12:25:38.312Z,19.83
2023-06-27T12:26:38.142Z,19.66
2023-06-27T12:27:38.190Z,19.59
2023-06-27T12:28:38.264Z,19.39
2023-06-27T12:29:38.370Z,19.23
2023-06-27T12:30:38.536Z,19.04
2023-06-27T12:31:38.651Z,18.69
2023-06-27T12:32:38.638Z,18.44
2023-06-27T12:33:38.709Z,18.20
2023-06-27T12:34:38.753Z,18.07
2023-06-27T12:35:38.827Z,18.03
2023-06-27T12:36:38.901Z,17.97
2023-06-27T12:37:39.012Z,17.97
2023-06-27T12:38:39.050Z,17.93
2023-06-27T12:39:39.118Z,17.90
2023-06-27T12:40:39.477Z,17.87
2023-06-27T12:41:39.335Z,17.86
2023-06-27T12:42:39.428Z,17.92
2023-06-27T12:43:39.450Z,17.95
2023-06-27T12:44:39.568Z,17.97
2023-06-27T12:45:44.212Z,18.07
2023-06-27T12:46:39.689Z,18.07
2023-06-27T12:47:39.811Z,18.12
2023-06-27T12:48:39.850Z,18.18
2023-06-27T12:49:39.959Z,18.15
2023-06-27T12:50:40.324Z,18.21
2023-06-27T12:51:40.106Z,18.20
2023-06-27T12:52:40.144Z,18.29
2023-06-27T12:53:40.261Z,18.33
2023-06-27T12:54:40.290Z,18.39
2023-06-27T12:55:40.380Z,18.39
2023-06-27T12:56:40.446Z,18.48
2023-06-27T12:57:40.521Z,18.47
2023-06-27T12:58:40.629Z,18.51